Time;durP1;ratioP1;P1;durP2;ratioP2;P2;SDS_P1;SDS_P2;PMS_P1;PMS_P2;Temp;Humidity;BMP_temperature;BMP_pressure;BME280_temperature;BME280_humidity;BME280_pressure;Samples;Min_cycle;Max_cycle;Signal;HPM_P1;HPM_P2
2021/03/29 00:02:11;;;;;;;0.20;0.20;;;9.50;99.90;;;;;;4987647;28;20187;-83
2021/03/29 00:04:37;;;;;;;0.10;0.10;;;9.30;99.90;;;;;;4993069;28;20570;-83
2021/03/29 00:07:05;;;;;;;1.03;1.03;;;9.20;99.90;;;;;;5014027;28;20182;-83
2021/03/29 00:09:34;;;;;;;0.60;0.40;;;9.20;99.90;;;;;;4995233;28;20210;-83
2021/03/29 00:12:03;;;;;;;0.30;0.30;;;9.00;99.90;;;;;;4995069;28;20195;-84
2021/03/29 00:14:30;;;;;;;1.17;1.17;;;9.00;99.90;;;;;;5012265;28;20191;-83
2021/03/29 00:16:56;;;;;;;0.10;0.10;;;9.00;99.90;;;;;;4991150;28;20192;-82
2021/03/29 00:19:23;;;;;;;0.10;0.10;;;8.80;99.90;;;;;;5011191;28;20221;-83
2021/03/29 00:21:49;;;;;;;0.20;0.20;;;8.90;99.90;;;;;;4991469;28;20191;-83
2021/03/29 00:24:15;;;;;;;0.30;0.30;;;8.90;99.90;;;;;;5012039;28;20835;-83
2021/03/29 00:26:42;;;;;;;1.10;0.37;;;8.90;99.90;;;;;;4996393;28;20186;-83
2021/03/29 00:29:07;;;;;;;0.50;0.50;;;8.80;99.90;;;;;;5011729;28;20283;-82
2021/03/29 00:31:33;;;;;;;0.13;0.13;;;8.80;99.90;;;;;;5011994;28;20210;-82
2021/03/29 00:34:00;;;;;;;0.10;0.10;;;8.80;99.90;;;;;;4992851;28;20206;-83
2021/03/29 00:36:27;;;;;;;0.20;0.20;;;8.70;99.90;;;;;;5005976;28;20593;-83
2021/03/29 00:38:55;;;;;;;1.37;0.40;;;8.60;99.90;;;;;;4994521;28;20184;-83
2021/03/29 00:41:21;;;;;;;0.17;0.17;;;8.50;99.90;;;;;;5010058;28;20205;-82
2021/03/29 00:43:49;;;;;;;0.20;0.20;;;8.60;99.90;;;;;;4993997;28;20645;-83
2021/03/29 00:46:17;;;;;;;0.57;0.43;;;8.50;99.90;;;;;;4991807;28;20197;-83
2021/03/29 00:48:44;;;;;;;0.43;0.07;;;8.50;99.90;;;;;;4994798;28;20187;-83
2021/03/29 00:51:17;;;;;;;0.10;0.10;;;8.50;99.90;;;;;;4994780;28;20332;-82
2021/03/29 00:53:45;;;;;;;0.20;0.20;;;8.50;99.90;;;;;;5011775;28;20233;-83
2021/03/29 00:56:11;;;;;;;0.10;0.10;;;8.50;99.90;;;;;;4992950;28;20230;-83
2021/03/29 00:58:38;;;;;;;2.53;0.40;;;8.50;99.90;;;;;;5010969;28;20182;-84
2021/03/29 01:01:11;;;;;;;0.63;0.20;;;8.40;99.90;;;;;;5006610;28;20206;-83
2021/03/29 01:03:41;;;;;;;0.10;0.10;;;8.40;99.90;;;;;;4994042;28;20190;-83
2021/03/29 01:06:08;;;;;;;0.10;0.10;;;8.40;99.90;;;;;;5008665;28;20193;-83
2021/03/29 01:08:37;;;;;;;0.03;0.03;;;8.40;99.90;;;;;;5012156;28;20193;-83
2021/03/29 01:11:05;;;;;;;0.63;0.10;;;8.40;99.90;;;;;;5011660;28;20194;-83
2021/03/29 01:13:38;;;;;;;0.10;0.10;;;8.40;99.90;;;;;;4994085;28;20189;-83
2021/03/29 01:16:06;;;;;;;0.20;0.20;;;8.40;99.90;;;;;;4993882;28;20214;-83
2021/03/29 01:18:33;;;;;;;0.03;0.03;;;8.40;99.90;;;;;;5011822;28;20268;-83
2021/03/29 01:21:14;;;;;;;0.60;0.40;;;8.20;99.90;;;;;;5011733;28;20206;-83
2021/03/29 01:23:41;;;;;;;0.07;0.07;;;8.20;99.90;;;;;;5023900;28;20189;-82
2021/03/29 01:26:26;;;;;;;0.20;0.20;;;8.10;99.90;;;;;;5011907;28;20700;-84
2021/03/29 01:28:52;;;;;;;0.10;0.10;;;8.10;99.90;;;;;;4993418;28;20195;-83
2021/03/29 01:31:19;;;;;;;0.20;0.20;;;8.10;99.90;;;;;;4990816;28;20197;-83
2021/03/29 01:33:45;;;;;;;0.07;0.07;;;8.10;99.90;;;;;;5009756;28;20195;-86
2021/03/29 01:36:11;;;;;;;0.20;0.13;;;8.10;99.90;;;;;;5015280;28;20180;-83
2021/03/29 01:38:38;;;;;;;0.00;0.00;;;8.10;99.90;;;;;;4997155;28;20188;-83
2021/03/29 01:41:04;;;;;;;0.13;0.13;;;8.10;99.90;;;;;;4997169;28;20202;-82
2021/03/29 01:43:31;;;;;;;0.10;0.10;;;8.00;99.90;;;;;;4997450;28;20185;-83
2021/03/29 01:45:58;;;;;;;0.00;0.00;;;7.90;99.90;;;;;;4998048;28;20646;-85
2021/03/29 01:48:25;;;;;;;0.20;0.20;;;7.80;99.90;;;;;;5004303;28;20180;-83
2021/03/29 01:50:55;;;;;;;0.10;0.10;;;7.80;99.90;;;;;;4995952;28;20280;-83
2021/03/29 01:53:30;;;;;;;0.13;0.13;;;7.70;99.90;;;;;;5014267;28;20214;-82
2021/03/29 01:55:56;;;;;;;0.50;0.50;;;7.70;99.90;;;;;;5030284;28;20242;-82
2021/03/29 01:58:22;;;;;;;0.93;0.30;;;7.50;99.90;;;;;;5014897;28;20598;-83
2021/03/29 02:00:57;;;;;;;0.10;0.10;;;7.40;99.90;;;;;;4997155;28;20717;-82
2021/03/29 02:03:24;;;;;;;0.10;0.10;;;7.40;99.90;;;;;;4996923;28;20189;-83
2021/03/29 02:05:51;;;;;;;0.10;0.10;;;7.40;99.90;;;;;;5015048;28;20240;-82
2021/03/29 02:08:18;;;;;;;0.10;0.10;;;7.40;99.90;;;;;;5014750;28;20707;-82
2021/03/29 02:10:45;;;;;;;0.10;0.10;;;7.40;99.90;;;;;;5014702;28;20196;-83
2021/03/29 02:13:14;;;;;;;0.43;0.37;;;7.40;99.90;;;;;;5029883;28;20614;-83
2021/03/29 02:15:40;;;;;;;0.10;0.10;;;7.40;99.90;;;;;;5029970;28;20183;-83
2021/03/29 02:18:12;;;;;;;0.17;0.13;;;7.40;99.90;;;;;;4996872;28;20709;-82
2021/03/29 02:20:39;;;;;;;0.10;0.10;;;7.30;99.90;;;;;;4997231;28;20214;-83
2021/03/29 02:23:07;;;;;;;3.83;0.10;;;7.40;99.90;;;;;;5011299;28;20268;-83
2021/03/29 02:25:34;;;;;;;0.20;0.20;;;7.50;99.90;;;;;;4997181;28;20771;-83
2021/03/29 02:28:01;;;;;;;0.10;0.10;;;7.50;99.90;;;;;;5004773;28;20227;-84
2021/03/29 02:30:54;;;;;;;0.10;0.10;;;7.50;99.90;;;;;;5010518;28;20639;-83
2021/03/29 02:33:20;;;;;;;0.13;0.13;;;7.50;99.90;;;;;;5023844;28;20288;-83
2021/03/29 02:35:47;;;;;;;0.00;0.00;;;7.50;99.90;;;;;;5009118;28;20273;-82
2021/03/29 02:38:16;;;;;;;0.00;0.00;;;7.60;99.90;;;;;;4996347;28;20177;-84
2021/03/29 02:40:44;;;;;;;0.60;0.50;;;7.60;99.90;;;;;;5020170;28;20220;-82
2021/03/29 02:43:11;;;;;;;0.20;0.20;;;7.60;99.90;;;;;;4996630;28;20661;-84
2021/03/29 02:45:42;;;;;;;0.23;0.13;;;7.50;99.90;;;;;;5013854;28;20196;-82
2021/03/29 02:48:11;;;;;;;0.53;0.40;;;7.50;99.90;;;;;;4996235;28;20182;-83
2021/03/29 02:50:41;;;;;;;0.87;0.30;;;7.60;99.90;;;;;;5032805;28;20197;-82
2021/03/29 02:53:16;;;;;;;0.37;0.37;;;7.70;99.90;;;;;;4998557;28;20180;-82
2021/03/29 02:55:44;;;;;;;0.00;0.00;;;7.90;99.90;;;;;;5014227;28;20213;-83
2021/03/29 02:58:12;;;;;;;0.10;0.10;;;8.00;99.90;;;;;;5013396;28;20198;-85
2021/03/29 03:00:38;;;;;;;0.10;0.10;;;8.10;99.90;;;;;;4995776;28;20707;-85
2021/03/29 03:03:05;;;;;;;0.10;0.10;;;8.20;99.90;;;;;;5013400;28;20260;-85
2021/03/29 03:05:34;;;;;;;0.10;0.10;;;8.20;99.90;;;;;;4996170;28;20565;-83
2021/03/29 03:08:00;;;;;;;0.37;0.20;;;8.00;99.90;;;;;;5013371;28;20280;-84
2021/03/29 03:10:28;;;;;;;0.10;0.10;;;7.70;99.90;;;;;;4996149;28;20205;-83
2021/03/29 03:12:55;;;;;;;0.10;0.10;;;7.70;99.90;;;;;;5003181;28;20265;-83
2021/03/29 03:15:23;;;;;;;0.10;0.10;;;7.60;99.90;;;;;;4992435;28;20191;-86
2021/03/29 03:17:50;;;;;;;0.07;0.07;;;7.70;99.90;;;;;;4995089;28;20322;-83
2021/03/29 03:20:17;;;;;;;0.30;0.30;;;7.70;99.90;;;;;;4999836;28;20234;-82
2021/03/29 03:22:50;;;;;;;0.00;0.00;;;7.80;99.90;;;;;;5006310;28;20193;-83
2021/03/29 03:25:30;;;;;;;0.10;0.10;;;7.80;99.90;;;;;;5002002;28;20222;-83
2021/03/29 03:28:04;;;;;;;0.10;0.10;;;7.80;99.90;;;;;;4992462;28;20554;-83
2021/03/29 03:30:58;;;;;;;0.10;0.10;;;7.80;99.90;;;;;;5013249;28;20323;-82
2021/03/29 03:33:27;;;;;;;0.10;0.10;;;7.80;99.90;;;;;;4990098;28;20206;-82
2021/03/29 03:35:55;;;;;;;0.10;0.10;;;7.80;99.90;;;;;;5031308;28;20196;-83
2021/03/29 03:38:28;;;;;;;0.10;0.10;;;7.80;99.90;;;;;;4997784;28;20269;-82
2021/03/29 03:40:58;;;;;;;0.10;0.10;;;7.70;99.90;;;;;;4995481;28;20609;-83
2021/03/29 03:43:27;;;;;;;0.10;0.10;;;7.70;99.90;;;;;;5030039;28;20191;-83
2021/03/29 03:46:20;;;;;;;0.10;0.10;;;7.60;99.90;;;;;;5013170;28;20210;-83
2021/03/29 03:48:46;;;;;;;0.10;0.10;;;7.50;99.90;;;;;;5007751;28;20294;-83
2021/03/29 03:51:12;;;;;;;0.40;0.40;;;7.40;99.90;;;;;;4995199;28;20297;-83
2021/03/29 03:53:38;;;;;;;0.00;0.00;;;7.30;99.90;;;;;;4986078;28;20181;-84
2021/03/29 03:56:06;;;;;;;0.07;0.07;;;7.30;99.90;;;;;;4994756;28;20185;-83
2021/03/29 03:58:31;;;;;;;0.10;0.10;;;7.30;99.90;;;;;;5012479;28;20656;-83
2021/03/29 04:01:05;;;;;;;2.13;0.17;;;7.30;99.90;;;;;;4994570;28;20203;-83
2021/03/29 04:03:31;;;;;;;0.07;0.07;;;7.30;99.90;;;;;;5012923;28;20180;-83
2021/03/29 04:05:57;;;;;;;0.00;0.00;;;7.30;99.90;;;;;;5006718;28;20610;-84
2021/03/29 04:08:23;;;;;;;0.10;0.10;;;7.40;99.90;;;;;;4994731;28;20208;-83
2021/03/29 04:10:54;;;;;;;0.20;0.20;;;7.40;99.90;;;;;;5012120;28;20886;-85
2021/03/29 04:15:51;;;;;;;0.30;0.30;;;7.30;99.90;;;;;;5006157;28;20184;-84
2021/03/29 04:18:16;;;;;;;0.20;0.20;;;7.30;99.90;;;;;;5012525;28;20191;-85
2021/03/29 04:20:42;;;;;;;0.40;0.40;;;7.30;99.90;;;;;;4991780;28;20209;-83
2021/03/29 04:23:08;;;;;;;0.10;0.10;;;7.30;99.90;;;;;;5002827;28;20189;-83
2021/03/29 04:25:49;;;;;;;0.10;0.10;;;7.40;99.90;;;;;;4992158;28;20249;-84
2021/03/29 04:28:15;;;;;;;0.47;0.37;;;7.40;99.90;;;;;;5009314;28;20179;-83
2021/03/29 04:30:41;;;;;;;0.10;0.10;;;7.40;99.90;;;;;;4994287;28;20288;-84
2021/03/29 04:33:07;;;;;;;0.43;0.30;;;7.30;99.90;;;;;;4991877;28;20725;-85
2021/03/29 04:35:32;;;;;;;0.20;0.20;;;7.40;99.90;;;;;;4987148;28;20183;-83
2021/03/29 04:37:58;;;;;;;0.07;0.07;;;7.40;99.90;;;;;;4982346;28;20194;-84
2021/03/29 04:40:25;;;;;;;0.10;0.10;;;7.40;99.90;;;;;;4993533;28;20210;-84
2021/03/29 04:42:52;;;;;;;0.20;0.20;;;7.40;99.90;;;;;;4994007;28;20556;-83
2021/03/29 04:45:18;;;;;;;0.17;0.17;;;7.40;99.90;;;;;;5002789;28;20687;-83
2021/03/29 04:47:44;;;;;;;0.00;0.00;;;7.40;99.90;;;;;;5019116;28;20232;-83
2021/03/29 04:50:11;;;;;;;0.30;0.30;;;7.20;99.90;;;;;;4993090;28;20210;-83
2021/03/29 04:52:37;;;;;;;0.20;0.20;;;7.10;99.90;;;;;;5007273;28;20179;-84
2021/03/29 04:55:03;;;;;;;0.13;0.13;;;7.10;99.90;;;;;;5011544;28;20179;-85
2021/03/29 04:57:29;;;;;;;0.07;0.07;;;7.10;99.90;;;;;;5011686;28;20267;-85
2021/03/29 04:59:54;;;;;;;0.63;0.20;;;7.20;99.90;;;;;;4993663;28;20242;-83
2021/03/29 05:02:20;;;;;;;0.10;0.10;;;7.20;99.90;;;;;;4996786;28;20852;-83
2021/03/29 05:04:46;;;;;;;0.00;0.00;;;7.10;99.90;;;;;;5019693;28;20302;-83
2021/03/29 05:07:12;;;;;;;0.10;0.10;;;6.90;99.90;;;;;;5006012;28;20187;-84
2021/03/29 05:09:38;;;;;;;0.10;0.10;;;6.70;99.90;;;;;;5013894;28;20215;-83
2021/03/29 05:12:10;;;;;;;0.10;0.10;;;6.60;99.90;;;;;;5015246;28;20194;-83
2021/03/29 05:14:36;;;;;;;1.60;1.00;;;6.50;99.90;;;;;;4996033;28;20637;-83
2021/03/29 05:17:03;;;;;;;0.87;0.87;;;6.40;99.90;;;;;;5009399;28;20190;-85
2021/03/29 05:19:28;;;;;;;0.10;0.10;;;6.30;99.90;;;;;;5038862;28;20232;-85
2021/03/29 05:21:54;;;;;;;0.00;0.00;;;6.30;99.90;;;;;;5014216;28;20271;-86
2021/03/29 05:24:19;;;;;;;0.07;0.07;;;6.40;99.90;;;;;;5010901;28;20294;-85
2021/03/29 05:26:45;;;;;;;0.10;0.10;;;6.50;99.90;;;;;;5005457;28;20651;-84
2021/03/29 05:29:10;;;;;;;0.10;0.10;;;6.60;99.90;;;;;;5014858;28;20721;-83
2021/03/29 05:31:39;;;;;;;2.00;0.37;;;6.80;99.90;;;;;;4997174;28;20727;-83
2021/03/29 05:34:06;;;;;;;0.20;0.20;;;6.90;99.90;;;;;;5015031;28;20191;-83
2021/03/29 05:36:32;;;;;;;0.20;0.20;;;6.90;99.90;;;;;;5013640;28;20242;-82
2021/03/29 05:38:57;;;;;;;0.73;0.73;;;7.00;99.90;;;;;;4996866;28;20177;-85
2021/03/29 05:41:23;;;;;;;0.10;0.10;;;7.00;99.90;;;;;;5014480;28;20175;-85
2021/03/29 05:43:49;;;;;;;0.10;0.10;;;7.00;99.90;;;;;;4995865;28;20192;-84
2021/03/29 05:46:15;;;;;;;0.10;0.10;;;7.00;99.90;;;;;;5013693;28;20210;-82
2021/03/29 05:48:41;;;;;;;0.13;0.13;;;7.00;99.90;;;;;;4991541;28;20261;-81
2021/03/29 05:51:07;;;;;;;0.00;0.00;;;7.10;99.90;;;;;;4995415;28;20204;-80
2021/03/29 05:53:34;;;;;;;0.10;0.10;;;7.20;99.90;;;;;;5009526;28;20179;-81
2021/03/29 05:56:00;;;;;;;0.10;0.10;;;7.30;99.90;;;;;;5011569;28;20266;-80
2021/03/29 06:00:54;;;;;;;0.23;0.23;;;7.40;99.90;;;;;;5014008;28;20237;-80
2021/03/29 06:03:37;;;;;;;0.10;0.10;;;7.30;99.90;;;;;;5003239;28;20686;-79
2021/03/29 06:06:12;;;;;;;0.10;0.10;;;7.20;99.90;;;;;;5016900;28;20256;-80
2021/03/29 06:08:59;;;;;;;0.30;0.30;;;7.30;99.90;;;;;;4995392;28;20263;-82
2021/03/29 06:11:48;;;;;;;0.10;0.10;;;7.50;99.90;;;;;;5012186;28;20180;-80
2021/03/29 06:14:16;;;;;;;0.10;0.10;;;7.60;99.90;;;;;;5006201;28;20752;-78
2021/03/29 06:16:54;;;;;;;0.90;0.83;;;7.90;99.90;;;;;;4991486;28;20614;-79
2021/03/29 06:19:54;;;;;;;0.50;0.20;;;8.10;99.90;;;;;;5009426;28;20299;-80
2021/03/29 06:22:24;;;;;;;0.40;0.40;;;8.20;99.90;;;;;;5011209;28;20198;-80
2021/03/29 06:25:20;;;;;;;0.00;0.00;;;8.40;99.90;;;;;;5009317;28;20276;-78
2021/03/29 06:27:51;;;;;;;0.10;0.10;;;8.70;99.90;;;;;;5007644;28;20207;-78
2021/03/29 06:30:20;;;;;;;0.67;0.50;;;8.90;99.90;;;;;;4994246;28;20213;-80
2021/03/29 06:33:16;;;;;;;0.57;0.07;;;9.10;99.90;;;;;;5011183;28;20203;-79
2021/03/29 06:35:43;;;;;;;0.40;0.37;;;9.30;99.90;;;;;;5023185;28;20247;-80
2021/03/29 06:38:16;;;;;;;0.10;0.10;;;9.40;99.90;;;;;;5023102;28;20198;-80
2021/03/29 06:40:44;;;;;;;0.30;0.30;;;9.40;99.90;;;;;;5009458;28;20226;-80
2021/03/29 06:43:32;;;;;;;0.40;0.33;;;9.50;99.90;;;;;;5010764;28;20190;-80
2021/03/29 06:46:04;;;;;;;0.10;0.10;;;9.50;99.90;;;;;;5007894;28;20210;-80
2021/03/29 06:48:33;;;;;;;0.10;0.10;;;9.60;99.90;;;;;;4993510;28;20194;-83
2021/03/29 06:51:18;;;;;;;0.40;0.40;;;9.60;99.90;;;;;;4992974;28;20199;-79
2021/03/29 06:53:54;;;;;;;0.20;0.20;;;9.70;99.90;;;;;;5003634;28;20190;-79
2021/03/29 06:56:26;;;;;;;0.30;0.30;;;9.90;99.90;;;;;;5011583;28;20189;-81
2021/03/29 06:58:53;;;;;;;1.30;0.30;;;9.90;99.90;;;;;;4994410;28;20187;-81
2021/03/29 07:01:22;;;;;;;0.10;0.10;;;10.00;99.90;;;;;;5003956;28;20431;-79
2021/03/29 07:03:48;;;;;;;1.03;1.03;;;10.10;99.90;;;;;;5012269;28;20175;-80
2021/03/29 07:06:20;;;;;;;1.13;0.30;;;10.20;99.90;;;;;;5009326;28;20569;-79
2021/03/29 07:08:46;;;;;;;0.50;0.50;;;10.30;99.90;;;;;;4993902;28;20244;-81
2021/03/29 07:11:14;;;;;;;0.20;0.20;;;10.40;99.90;;;;;;5011899;28;20234;-80
2021/03/29 07:13:41;;;;;;;0.10;0.10;;;10.60;99.90;;;;;;5011873;28;20758;-80
2021/03/29 07:16:07;;;;;;;3.27;0.63;;;10.80;99.90;;;;;;4994514;28;20201;-81
2021/03/29 07:18:35;;;;;;;0.10;0.10;;;11.00;99.90;;;;;;5010957;28;20530;-80
2021/03/29 07:21:02;;;;;;;0.83;0.83;;;11.00;99.90;;;;;;4994466;28;20276;-81
2021/03/29 07:23:28;;;;;;;0.10;0.10;;;11.10;99.90;;;;;;4994026;28;20237;-79
2021/03/29 07:25:54;;;;;;;0.20;0.20;;;11.20;99.90;;;;;;4994499;28;20261;-80
2021/03/29 07:28:21;;;;;;;2.47;0.93;;;11.20;99.90;;;;;;4994059;28;20725;-80
2021/03/29 07:30:47;;;;;;;0.30;0.30;;;11.20;99.90;;;;;;5011382;28;20282;-79
2021/03/29 07:33:14;;;;;;;0.20;0.20;;;11.30;99.90;;;;;;4990485;28;20237;-78
2021/03/29 07:35:50;;;;;;;0.10;0.10;;;11.50;99.90;;;;;;4981113;28;20198;-80
2021/03/29 07:38:18;;;;;;;1.23;0.97;;;11.70;99.90;;;;;;5013743;28;20186;-81
2021/03/29 07:40:47;;;;;;;0.47;0.20;;;11.80;99.90;;;;;;4988894;28;20209;-81
2021/03/29 07:43:21;;;;;;;2.10;0.97;;;11.70;99.90;;;;;;4995453;28;20237;-81
2021/03/29 07:45:48;;;;;;;0.93;0.43;;;11.70;99.90;;;;;;4994080;28;20230;-81
2021/03/29 07:48:15;;;;;;;0.83;0.33;;;11.90;99.90;;;;;;5011388;28;20257;-82
2021/03/29 07:50:41;;;;;;;0.20;0.20;;;12.00;99.90;;;;;;5012813;28;20203;-80
2021/03/29 07:53:16;;;;;;;0.57;0.23;;;12.10;99.90;;;;;;4985642;28;20194;-81
2021/03/29 07:55:48;;;;;;;0.10;0.10;;;12.20;99.90;;;;;;5011633;28;20182;-81
2021/03/29 07:58:26;;;;;;;0.10;0.10;;;12.30;99.90;;;;;;4993232;28;20277;-80
2021/03/29 08:00:59;;;;;;;0.40;0.40;;;12.40;99.90;;;;;;4987454;28;20215;-80
2021/03/29 08:03:24;;;;;;;0.43;0.30;;;12.50;99.90;;;;;;5011743;28;20223;-81
2021/03/29 08:05:52;;;;;;;0.10;0.10;;;12.60;99.90;;;;;;5011335;28;20308;-81
2021/03/29 08:08:35;;;;;;;0.60;0.60;;;12.50;99.90;;;;;;4993418;28;20180;-81
2021/03/29 08:11:04;;;;;;;0.70;0.70;;;12.80;99.90;;;;;;4993183;28;20207;-80
2021/03/29 08:13:40;;;;;;;0.47;0.23;;;12.80;99.90;;;;;;4994712;28;20230;-81
2021/03/29 08:16:15;;;;;;;0.27;0.27;;;12.90;99.90;;;;;;5011659;28;20187;-81
2021/03/29 08:19:06;;;;;;;0.10;0.10;;;13.10;99.90;;;;;;4993242;28;20183;-80
2021/03/29 08:21:55;;;;;;;0.10;0.10;;;13.30;99.90;;;;;;5000122;28;22128;-80
2021/03/29 08:24:31;;;;;;;0.10;0.10;;;13.40;99.90;;;;;;5017233;28;20219;-80
2021/03/29 08:26:58;;;;;;;0.20;0.20;;;13.60;99.90;;;;;;4992086;28;20196;-81
2021/03/29 08:29:31;;;;;;;0.20;0.20;;;13.80;99.90;;;;;;4988671;28;20602;-81
2021/03/29 08:32:34;;;;;;;0.10;0.10;;;13.90;99.90;;;;;;5010529;28;20176;-81
2021/03/29 08:35:07;;;;;;;0.10;0.10;;;14.10;99.90;;;;;;4991790;28;20204;-81
2021/03/29 08:37:34;;;;;;;0.10;0.10;;;14.40;99.90;;;;;;4995092;28;20184;-81
2021/03/29 08:40:25;;;;;;;0.43;0.43;;;14.50;99.90;;;;;;4988376;28;20308;-81
2021/03/29 08:42:53;;;;;;;0.10;0.10;;;14.70;99.90;;;;;;4996756;28;20208;-81
2021/03/29 08:45:24;;;;;;;1.17;0.87;;;14.80;99.90;;;;;;4997499;28;20584;-81
2021/03/29 08:47:52;;;;;;;0.30;0.30;;;14.80;99.90;;;;;;5017284;28;20276;-79
2021/03/29 08:50:21;;;;;;;0.20;0.20;;;14.90;99.90;;;;;;5027795;28;20202;-81
2021/03/29 08:52:58;;;;;;;1.30;0.60;;;15.00;99.90;;;;;;5014895;28;20192;-81
2021/03/29 08:55:27;;;;;;;0.10;0.10;;;15.00;99.90;;;;;;5000410;28;20286;-81
2021/03/29 08:57:54;;;;;;;0.50;0.50;;;15.10;99.90;;;;;;4999434;28;20186;-81
2021/03/29 09:00:24;;;;;;;0.10;0.10;;;15.10;99.90;;;;;;5015679;28;20594;-81
2021/03/29 09:02:50;;;;;;;0.30;0.30;;;15.40;99.90;;;;;;4999373;28;20285;-81
2021/03/29 09:05:18;;;;;;;0.30;0.30;;;15.50;99.90;;;;;;5017830;28;20228;-81
2021/03/29 09:07:47;;;;;;;0.23;0.23;;;15.60;99.90;;;;;;4998549;28;20558;-79
2021/03/29 09:10:22;;;;;;;0.60;0.60;;;15.40;99.90;;;;;;5010096;28;20585;-81
2021/03/29 09:13:10;;;;;;;0.27;0.20;;;15.60;99.90;;;;;;4998271;28;20186;-80
2021/03/29 09:15:41;;;;;;;0.10;0.10;;;15.80;99.90;;;;;;4994102;28;20183;-80
2021/03/29 09:18:08;;;;;;;0.43;0.43;;;15.70;99.90;;;;;;4997501;28;20695;-81
2021/03/29 09:20:35;;;;;;;0.30;0.30;;;15.80;99.90;;;;;;4999393;28;20967;-81
2021/03/29 09:23:02;;;;;;;0.27;0.27;;;15.90;99.90;;;;;;5016252;28;20223;-82
2021/03/29 09:25:35;;;;;;;0.10;0.10;;;15.80;99.90;;;;;;5011995;28;20211;-81
2021/03/29 09:28:13;;;;;;;0.20;0.20;;;15.80;99.90;;;;;;4997141;28;20186;-80
2021/03/29 09:30:39;;;;;;;1.07;0.73;;;15.70;99.90;;;;;;5015559;28;20208;-81
2021/03/29 09:33:06;;;;;;;0.90;0.30;;;15.80;99.90;;;;;;5012442;28;20227;-81
2021/03/29 09:35:31;;;;;;;0.87;0.50;;;16.10;99.90;;;;;;5012602;28;20189;-81
2021/03/29 09:37:57;;;;;;;1.50;1.40;;;16.30;99.90;;;;;;5014991;28;20195;-79
2021/03/29 09:40:23;;;;;;;0.57;0.57;;;16.50;99.90;;;;;;4999243;28;20682;-81
2021/03/29 09:42:53;;;;;;;1.73;0.43;;;16.40;99.90;;;;;;5014766;28;20195;-81
2021/03/29 09:45:36;;;;;;;0.90;0.53;;;16.50;99.90;;;;;;5006497;28;20226;-81
2021/03/29 09:48:09;;;;;;;0.27;0.27;;;16.60;99.90;;;;;;5000385;28;20214;-80
2021/03/29 09:50:46;;;;;;;2.13;0.80;;;16.70;99.90;;;;;;4994847;28;20207;-81
2021/03/29 09:53:18;;;;;;;0.30;0.30;;;16.50;99.90;;;;;;4993692;28;20178;-79
2021/03/29 09:55:54;;;;;;;0.57;0.30;;;16.70;99.90;;;;;;4994631;28;20183;-79
2021/03/29 09:58:24;;;;;;;0.10;0.10;;;16.90;99.90;;;;;;4992782;28;20248;-81
2021/03/29 10:00:52;;;;;;;0.83;0.40;;;17.20;99.90;;;;;;5011937;28;20207;-80
2021/03/29 10:03:19;;;;;;;1.43;0.70;;;17.20;99.90;;;;;;5009196;28;20674;-81
2021/03/29 10:05:46;;;;;;;0.67;0.50;;;17.40;99.90;;;;;;4993681;28;20221;-80
2021/03/29 10:08:27;;;;;;;0.10;0.10;;;17.30;99.90;;;;;;5032828;28;20179;-81
2021/03/29 10:11:01;;;;;;;1.13;0.63;;;17.50;99.90;;;;;;4992572;28;20339;-80
2021/03/29 10:13:35;;;;;;;1.80;1.70;;;17.20;99.90;;;;;;4994448;28;20222;-80
2021/03/29 10:16:23;;;;;;;2.90;0.90;;;17.30;99.90;;;;;;4995766;28;20651;-80
2021/03/29 10:19:12;;;;;;;0.20;0.20;;;17.50;99.90;;;;;;5010798;28;20190;-80
2021/03/29 10:21:59;;;;;;;0.47;0.33;;;17.60;99.90;;;;;;5026622;28;20655;-81
2021/03/29 10:24:25;;;;;;;0.43;0.30;;;17.80;99.90;;;;;;5019188;28;20297;-79
2021/03/29 10:26:54;;;;;;;0.20;0.20;;;17.80;99.90;;;;;;5017299;28;20333;-80
2021/03/29 10:29:38;;;;;;;0.23;0.23;;;18.00;99.90;;;;;;5013752;28;20195;-81
2021/03/29 10:32:15;;;;;;;0.40;0.40;;;18.20;99.90;;;;;;4996319;28;20195;-80
2021/03/29 10:34:43;;;;;;;0.10;0.10;;;18.20;99.90;;;;;;5014542;28;20213;-80
2021/03/29 10:37:19;;;;;;;0.37;0.37;;;18.40;99.90;;;;;;5010838;28;20183;-80
2021/03/29 10:39:45;;;;;;;0.30;0.30;;;18.30;99.90;;;;;;4990790;28;20209;-81
2021/03/29 10:42:16;;;;;;;0.13;0.13;;;18.40;99.90;;;;;;4994109;28;20558;-81
2021/03/29 10:44:42;;;;;;;0.60;0.53;;;18.20;99.90;;;;;;4994237;28;20253;-79
2021/03/29 10:47:07;;;;;;;0.73;0.40;;;18.40;99.90;;;;;;4991821;28;20183;-82
2021/03/29 10:49:33;;;;;;;0.37;0.37;;;18.60;99.90;;;;;;5009990;28;20203;-80
2021/03/29 10:52:00;;;;;;;0.30;0.30;;;18.60;99.90;;;;;;5013111;28;20187;-80
2021/03/29 10:54:25;;;;;;;0.60;0.60;;;18.80;99.90;;;;;;4994709;28;20267;-81
2021/03/29 10:56:51;;;;;;;0.17;0.17;;;18.90;99.90;;;;;;5008110;28;20184;-84
2021/03/29 10:59:18;;;;;;;0.30;0.30;;;19.00;99.90;;;;;;5016124;28;20199;-84
2021/03/29 11:01:45;;;;;;;0.70;0.33;;;19.10;99.90;;;;;;5016087;28;20241;-85
2021/03/29 11:04:11;;;;;;;0.77;0.70;;;19.30;99.90;;;;;;5015117;28;20194;-87
2021/03/29 11:06:36;;;;;;;0.20;0.20;;;19.20;99.90;;;;;;5011463;28;20183;-82
2021/03/29 11:09:02;;;;;;;0.47;0.37;;;19.30;99.90;;;;;;5013995;28;20179;-84
2021/03/29 11:11:28;;;;;;;0.20;0.20;;;19.40;99.90;;;;;;4996374;28;20175;-84
2021/03/29 11:13:53;;;;;;;0.27;0.27;;;19.50;99.90;;;;;;4994673;28;20186;-87
2021/03/29 11:16:25;;;;;;;0.40;0.40;;;19.60;99.90;;;;;;4996700;28;20188;-84
2021/03/29 11:18:51;;;;;;;0.27;0.27;;;19.80;99.90;;;;;;5003565;28;20243;-85
2021/03/29 11:21:17;;;;;;;0.80;0.50;;;20.00;99.90;;;;;;4997484;28;20184;-84
2021/03/29 11:23:43;;;;;;;0.30;0.30;;;20.10;99.90;;;;;;4994034;28;20215;-84
2021/03/29 11:26:08;;;;;;;0.47;0.30;;;19.90;99.90;;;;;;5011124;28;20236;-84
2021/03/29 11:28:34;;;;;;;0.93;0.57;;;19.90;99.90;;;;;;5012793;28;20658;-84
2021/03/29 11:31:00;;;;;;;0.20;0.20;;;19.90;99.90;;;;;;5013631;28;20290;-85
2021/03/29 11:33:26;;;;;;;0.30;0.30;;;19.90;99.90;;;;;;4999244;28;20206;-84
2021/03/29 11:35:51;;;;;;;0.33;0.33;;;20.00;99.90;;;;;;5008614;28;20210;-84
2021/03/29 11:38:17;;;;;;;0.40;0.40;;;20.00;99.90;;;;;;4994250;28;20195;-84
2021/03/29 11:40:54;;;;;;;1.53;1.43;;;20.00;99.90;;;;;;5009807;28;20211;-84
2021/03/29 11:43:20;;;;;;;0.43;0.40;;;20.10;99.90;;;;;;4994734;28;20202;-85
2021/03/29 11:45:46;;;;;;;0.27;0.27;;;20.30;99.90;;;;;;4994871;28;20211;-84
2021/03/29 11:48:11;;;;;;;0.60;0.50;;;20.20;99.90;;;;;;5011435;28;20214;-84
2021/03/29 11:50:37;;;;;;;2.30;1.33;;;20.20;99.90;;;;;;5003409;28;20266;-84
2021/03/29 11:53:03;;;;;;;0.50;0.23;;;20.30;99.90;;;;;;4995333;28;20191;-86
2021/03/29 11:55:28;;;;;;;0.27;0.20;;;20.30;99.90;;;;;;4995324;28;20191;-85
2021/03/29 11:57:55;;;;;;;0.20;0.20;;;20.40;99.90;;;;;;5008607;28;20191;-85
2021/03/29 12:00:35;;;;;;;0.10;0.10;;;20.60;99.90;;;;;;5026165;28;20211;-86
2021/03/29 12:05:36;;;;;;;0.40;0.40;;;20.80;99.90;;;;;;5012458;28;20297;-87
2021/03/29 12:13:17;;;;;;;0.30;0.30;;;21.00;99.90;;;;;;5001028;28;20191;-85
2021/03/29 12:15:48;;;;;;;0.40;0.40;;;21.10;99.90;;;;;;5023230;28;20190;-84
2021/03/29 12:18:15;;;;;;;0.40;0.40;;;21.20;99.90;;;;;;5010003;28;20264;-85
2021/03/29 12:20:41;;;;;;;0.50;0.33;;;21.30;99.90;;;;;;5012052;28;20269;-84
2021/03/29 12:23:10;;;;;;;0.20;0.20;;;21.40;99.90;;;;;;4993507;28;20206;-84
2021/03/29 12:25:36;;;;;;;0.20;0.20;;;21.60;99.90;;;;;;4993748;28;20207;-85
2021/03/29 12:28:02;;;;;;;0.30;0.30;;;21.80;99.90;;;;;;4994633;28;20218;-85
2021/03/29 12:30:28;;;;;;;0.10;0.10;;;21.70;99.90;;;;;;4992066;28;20234;-86
2021/03/29 12:32:54;;;;;;;0.20;0.20;;;21.70;99.90;;;;;;5009791;28;20684;-84
2021/03/29 12:35:22;;;;;;;3.53;0.70;;;21.70;99.90;;;;;;4994197;28;20630;-88
2021/03/29 12:37:50;;;;;;;0.30;0.30;;;21.70;99.90;;;;;;5009640;28;20195;-84
2021/03/29 12:40:21;;;;;;;0.83;0.53;;;21.80;99.90;;;;;;5012524;28;20257;-84
2021/03/29 12:45:25;;;;;;;0.10;0.10;;;21.90;99.90;;;;;;5011482;28;20206;-84
2021/03/29 12:47:51;;;;;;;0.13;0.13;;;21.80;99.90;;;;;;5010991;28;20220;-85
2021/03/29 12:50:20;;;;;;;0.30;0.30;;;21.80;99.90;;;;;;5025992;28;20233;-85
2021/03/29 12:52:47;;;;;;;0.43;0.43;;;21.90;99.90;;;;;;5006377;28;20274;-84
2021/03/29 12:55:15;;;;;;;0.33;0.33;;;22.00;99.90;;;;;;5006799;28;20274;-85
2021/03/29 12:57:42;;;;;;;0.47;0.43;;;22.00;99.90;;;;;;4994834;28;20536;-85
2021/03/29 13:00:10;;;;;;;4.23;0.37;;;22.00;99.90;;;;;;5028311;28;20242;-85
2021/03/29 13:02:36;;;;;;;0.37;0.37;;;21.90;99.90;;;;;;4988732;28;20240;-84
2021/03/29 13:05:09;;;;;;;5.30;3.03;;;22.00;99.90;;;;;;4995905;28;20650;-84
2021/03/29 13:08:20;;;;;;;2.93;0.50;;;22.00;99.90;;;;;;5009211;28;20186;-84
2021/03/29 13:12:59;;;;;;;0.70;0.70;;;22.10;99.90;;;;;;5002069;28;20278;-84
2021/03/29 13:15:24;;;;;;;0.40;0.40;;;22.10;99.90;;;;;;5025933;28;20205;-84
2021/03/29 13:17:52;;;;;;;0.47;0.43;;;22.10;99.90;;;;;;4991805;28;20274;-84
2021/03/29 13:20:19;;;;;;;0.20;0.20;;;22.30;99.90;;;;;;5010852;28;20210;-85
2021/03/29 13:22:48;;;;;;;2.53;0.53;;;22.30;99.90;;;;;;4992733;28;20717;-85
2021/03/29 13:25:16;;;;;;;0.50;0.50;;;22.30;99.90;;;;;;5012858;28;20234;-85